Time;durP1;ratioP1;P1;durP2;ratioP2;P2;SDS_P1;SDS_P2;PMS_P1;PMS_P2;Temp;Humidity;BMP_temperature;BMP_pressure;BME280_temperature;BME280_humidity;BME280_pressure;Samples;Min_cycle;Max_cycle;Signal;HPM_P1;HPM_P2
2023/09/05 00:01:19;;;;;;;3.80;2.80;;;;;;;14.61;60.44;100258.83;107222;1263;60087;-40
2023/09/05 00:03:47;;;;;;;4.70;3.00;;;;;;;14.57;60.52;100256.73;107218;1258;60153;-40
2023/09/05 00:06:15;;;;;;;6.70;3.60;;;;;;;14.57;60.74;100255.16;107006;1263;73067;-39
2023/09/05 00:08:43;;;;;;;3.90;3.00;;;;;;;14.60;60.75;100259.11;107157;1263;67684;-39
2023/09/05 00:11:10;;;;;;;4.90;3.10;;;;;;;14.62;60.67;100258.69;107178;1260;71478;-40
2023/09/05 00:13:38;;;;;;;4.70;3.30;;;;;;;14.61;60.77;100260.54;107237;1260;60152;-40
2023/09/05 00:16:05;;;;;;;5.30;3.40;;;;;;;14.61;60.74;100258.67;107245;1257;60022;-40
2023/09/05 00:18:33;;;;;;;6.50;3.60;;;;;;;14.60;60.79;100257.41;107230;1257;73059;-40
2023/09/05 00:21:00;;;;;;;5.50;3.60;;;;;;;14.58;60.95;100262.52;107259;1260;67860;-38
2023/09/05 00:23:28;;;;;;;4.80;3.80;;;;;;;14.58;60.90;100262.52;107246;1260;71363;-39
2023/09/05 00:25:55;;;;;;;5.00;3.60;;;;;;;14.57;60.78;100268.73;107211;1257;60087;-39
2023/09/05 00:28:23;;;;;;;5.10;3.60;;;;;;;14.55;60.86;100269.64;107232;1256;60015;-39
2023/09/05 00:30:51;;;;;;;4.70;3.50;;;;;;;14.51;60.80;100270.90;107266;1258;73057;-39
2023/09/05 00:33:19;;;;;;;6.30;3.50;;;;;;;14.47;60.95;100268.87;107240;1259;67364;-39
2023/09/05 00:35:47;;;;;;;9.10;3.50;;;;;;;14.42;61.11;100266.21;107034;1260;72657;-39
2023/09/05 00:38:17;;;;;;;4.60;3.60;;;;;;;14.38;61.11;100267.39;107037;1260;59566;-39
2023/09/05 00:40:44;;;;;;;6.60;3.50;;;;;;;14.29;61.11;100267.91;107244;1257;60099;-40
2023/09/05 00:43:12;;;;;;;5.00;3.60;;;;;;;14.23;61.31;100275.03;107194;1257;73071;-40
2023/09/05 00:45:44;;;;;;;5.60;3.30;;;;;;;14.21;61.53;100276.80;107227;1257;66324;-40
2023/09/05 00:48:11;;;;;;;5.10;3.40;;;;;;;14.22;61.55;100279.54;107139;1257;72713;-39
2023/09/05 00:50:40;;;;;;;6.20;3.70;;;;;;;14.23;61.80;100280.27;107045;1257;60309;-39
2023/09/05 00:53:08;;;;;;;5.40;3.60;;;;;;;14.22;61.80;100286.64;107060;1257;60534;-39
2023/09/05 00:55:36;;;;;;;5.10;3.90;;;;;;;14.19;61.72;100287.73;107162;1257;73830;-39
2023/09/05 00:58:03;;;;;;;7.30;3.90;;;;;;;14.17;61.99;100282.64;107194;1262;67764;-39
2023/09/05 01:00:31;;;;;;;5.30;4.10;;;;;;;14.15;62.06;100279.63;107030;1257;72730;-39
2023/09/05 01:02:59;;;;;;;4.40;3.70;;;;;;;14.13;62.03;100281.39;107199;1257;60515;-39
2023/09/05 01:05:27;;;;;;;8.40;3.90;;;;;;;14.10;62.04;100286.00;107240;1256;60585;-39
2023/09/05 01:08:21;;;;;;;6.00;3.80;;;;;;;14.05;62.28;100286.69;107199;1257;73944;-39
2023/09/05 01:11:11;;;;;;;4.90;3.60;;;;;;;13.99;62.35;100285.94;107330;1257;67591;-39
2023/09/05 01:13:38;;;;;;;;;;;;;;;13.93;62.55;100284.59;107056;1258;71797;-39
2023/09/05 01:16:06;;;;;;;4.40;3.10;;;;;;;13.93;62.46;100284.43;107157;1257;60499;-39
2023/09/05 01:18:40;;;;;;;4.90;3.60;;;;;;;13.94;62.53;100282.73;107131;1262;60428;-39
2023/09/05 01:21:30;;;;;;;4.50;3.60;;;;;;;13.93;62.62;100286.36;107268;1262;73822;-39
2023/09/05 01:24:19;;;;;;;4.30;3.60;;;;;;;13.92;62.62;100288.62;107215;1257;67619;-39
2023/09/05 01:26:51;;;;;;;5.50;3.90;;;;;;;13.91;62.60;100288.35;107284;1261;71434;-39
2023/09/05 01:29:30;;;;;;;8.00;3.70;;;;;;;13.88;62.65;100294.30;107216;1257;60126;-39
2023/09/05 01:31:58;;;;;;;5.90;3.50;;;;;;;13.86;62.84;100294.34;107226;1257;60338;-39
2023/09/05 01:34:26;;;;;;;6.40;3.70;;;;;;;13.82;62.84;100291.07;107247;1257;73914;-39
2023/09/05 01:36:54;;;;;;;7.80;3.60;;;;;;;13.78;63.04;100288.63;107279;1257;67549;-39
2023/09/05 01:39:21;;;;;;;5.40;3.50;;;;;;;13.74;63.34;100290.18;107182;1257;72721;-39
2023/09/05 01:41:49;;;;;;;4.80;3.40;;;;;;;13.71;63.49;100288.79;107234;1263;60396;-39
2023/09/05 01:44:17;;;;;;;5.30;3.20;;;;;;;13.74;63.50;100289.63;107103;1258;60485;-39
2023/09/05 01:46:44;;;;;;;4.80;3.50;;;;;;;13.78;63.68;100292.05;107078;1257;73856;-39
2023/09/05 01:49:13;;;;;;;8.20;3.80;;;;;;;13.79;63.71;100288.27;107354;1257;66354;-39
2023/09/05 01:51:41;;;;;;;5.70;3.30;;;;;;;13.80;63.74;100284.85;107289;1257;72563;-39
2023/09/05 01:54:08;;;;;;;10.30;3.90;;;;;;;13.81;63.78;100291.26;107249;1260;60412;-41
2023/09/05 01:56:36;;;;;;;4.80;3.70;;;;;;;13.80;63.82;100291.16;107282;1258;60025;-40
2023/09/05 01:59:05;;;;;;;7.60;3.80;;;;;;;13.78;63.76;100291.85;107194;1262;73087;-39
2023/09/05 02:01:33;;;;;;;4.80;3.70;;;;;;;13.76;63.89;100293.11;107227;1257;67045;-40
2023/09/05 02:04:01;;;;;;;4.90;3.40;;;;;;;13.74;64.02;100297.03;107278;1257;72673;-39
2023/09/05 02:06:29;;;;;;;5.80;3.60;;;;;;;13.73;64.01;100299.11;107231;1260;61692;-39
2023/09/05 02:08:56;;;;;;;4.90;3.40;;;;;;;13.74;64.01;100295.56;107046;1257;60325;-39
2023/09/05 02:11:24;;;;;;;6.60;3.40;;;;;;;13.78;63.88;100294.94;107367;1260;74345;-39
2023/09/05 02:13:52;;;;;;;5.60;3.30;;;;;;;13.78;64.23;100297.52;107252;1258;65761;-39
2023/09/05 02:16:19;;;;;;;5.00;3.60;;;;;;;13.77;64.08;100295.77;107256;1257;72640;-40
2023/09/05 02:18:48;;;;;;;5.70;3.90;;;;;;;13.74;64.10;100302.27;107191;1258;60501;-39
2023/09/05 02:21:17;;;;;;;5.60;3.80;;;;;;;13.72;64.27;100300.58;107228;1257;60459;-39
2023/09/05 02:23:45;;;;;;;5.00;3.60;;;;;;;13.71;64.38;100299.30;107266;1256;73817;-40
2023/09/05 02:26:13;;;;;;;8.20;4.30;;;;;;;13.68;64.42;100298.32;107241;1257;67651;-39
2023/09/05 02:28:41;;;;;;;6.20;4.20;;;;;;;13.64;64.56;100299.63;107216;1258;71394;-39
2023/09/05 02:31:08;;;;;;;5.70;3.30;;;;;;;13.60;64.55;100295.86;107215;1257;61700;-39
2023/09/05 02:33:37;;;;;;;5.60;3.40;;;;;;;13.60;64.62;100295.66;107047;1263;60107;-39
2023/09/05 02:36:15;;;;;;;7.70;3.80;;;;;;;13.64;64.76;100296.27;107242;1257;72331;-39
2023/09/05 02:38:44;;;;;;;5.00;3.70;;;;;;;13.62;64.82;100299.80;107051;1263;66406;-39
2023/09/05 02:41:15;;;;;;;5.00;3.80;;;;;;;13.59;64.81;100299.30;107259;1257;72676;-39
2023/09/05 02:43:42;;;;;;;5.40;3.90;;;;;;;13.57;64.72;100301.81;107302;1257;60401;-39
2023/09/05 02:46:10;;;;;;;5.90;3.90;;;;;;;13.52;64.71;100303.88;107227;1256;60412;-39
2023/09/05 02:48:39;;;;;;;8.10;4.10;;;;;;;13.44;64.72;100304.34;107193;1257;73874;-40
2023/09/05 02:51:11;;;;;;;4.70;3.60;;;;;;;13.37;64.95;100306.91;107272;1257;66856;-39
2023/09/05 02:53:39;;;;;;;4.60;3.90;;;;;;;13.32;65.12;100310.52;107263;1257;72711;-39
2023/09/05 02:56:06;;;;;;;5.60;3.70;;;;;;;13.28;65.20;100312.44;107158;1257;61775;-39
2023/09/05 02:58:34;;;;;;;4.70;3.80;;;;;;;13.26;65.30;100312.80;107263;1257;59120;-39
2023/09/05 03:01:03;;;;;;;5.90;3.70;;;;;;;13.30;65.38;100311.70;107207;1262;73898;-39
2023/09/05 03:03:31;;;;;;;6.80;4.10;;;;;;;13.30;65.48;100313.11;107259;1257;67609;-39
2023/09/05 03:06:10;;;;;;;5.70;3.80;;;;;;;13.28;65.60;100313.69;107183;1257;72780;-39
2023/09/05 03:08:38;;;;;;;5.70;3.90;;;;;;;13.30;65.68;100312.58;107247;1257;60454;-41
2023/09/05 03:11:06;;;;;;;5.20;3.80;;;;;;;13.29;65.73;100312.93;107177;1257;60351;-40
2023/09/05 03:13:34;;;;;;;5.90;4.00;;;;;;;13.27;65.62;100313.81;107191;1262;72563;-39
2023/09/05 03:16:02;;;;;;;4.30;3.60;;;;;;;13.24;65.54;100317.72;107257;1258;66392;-38
2023/09/05 03:18:30;;;;;;;5.60;3.90;;;;;;;13.19;65.67;100318.08;107102;1263;71379;-38
2023/09/05 03:20:58;;;;;;;4.90;3.80;;;;;;;13.16;65.73;100321.97;107219;1257;60527;-38
2023/09/05 03:23:26;;;;;;;8.70;3.90;;;;;;;13.17;65.79;100323.95;107074;1257;60351;-39
2023/09/05 03:25:54;;;;;;;4.40;3.80;;;;;;;13.22;65.70;100322.10;107338;1257;73875;-39
2023/09/05 03:28:22;;;;;;;4.90;4.10;;;;;;;13.24;65.87;100325.48;107230;1257;66743;-39
2023/09/05 03:30:50;;;;;;;6.70;4.00;;;;;;;13.22;65.91;100325.21;107019;1256;72105;-39
2023/09/05 03:33:18;;;;;;;5.00;3.90;;;;;;;13.23;65.93;100329.66;107284;1262;60351;-39
2023/09/05 03:35:46;;;;;;;4.70;4.10;;;;;;;13.22;65.95;100332.75;107232;1257;60061;-39
2023/09/05 03:38:13;;;;;;;7.70;4.40;;;;;;;13.21;66.05;100335.40;107168;1257;73812;-39
2023/09/05 03:40:41;;;;;;;5.50;4.30;;;;;;;13.19;65.99;100339.70;107238;1257;67566;-39
2023/09/05 03:43:09;;;;;;;7.40;4.40;;;;;;;13.17;66.06;100335.91;107230;1256;72667;-39
2023/09/05 03:45:36;;;;;;;6.10;3.80;;;;;;;13.19;65.96;100334.40;107205;1257;60527;-39
2023/09/05 03:48:05;;;;;;;6.00;4.30;;;;;;;13.26;65.81;100338.75;107251;1257;60398;-38
2023/09/05 03:50:33;;;;;;;6.20;4.20;;;;;;;13.27;65.78;100337.48;107215;1257;72853;-38
2023/09/05 03:53:00;;;;;;;8.00;4.30;;;;;;;13.31;65.86;100341.61;107236;1257;68336;-38
2023/09/05 03:55:30;;;;;;;5.00;3.40;;;;;;;13.34;65.71;100350.25;107186;1257;71370;-38
2023/09/05 03:57:57;;;;;;;6.20;3.60;;;;;;;13.35;65.59;100349.66;107212;1257;60430;-39
2023/09/05 04:00:25;;;;;;;6.60;4.20;;;;;;;13.35;65.51;100353.70;107227;1260;60322;-39
2023/09/05 04:02:52;;;;;;;4.50;3.90;;;;;;;13.31;65.49;100348.47;107197;1257;72551;-39
2023/09/05 04:05:21;;;;;;;4.80;4.30;;;;;;;13.27;65.57;100350.39;107327;1257;67659;-39
2023/09/05 04:07:49;;;;;;;7.20;4.50;;;;;;;13.24;65.66;100351.79;107211;1257;72703;-39
2023/09/05 04:10:16;;;;;;;6.30;4.00;;;;;;;13.28;65.88;100355.46;107021;1257;61670;-39
2023/09/05 04:12:44;;;;;;;5.30;4.10;;;;;;;13.35;65.73;100358.12;107240;1257;60632;-39
2023/09/05 04:15:19;;;;;;;6.20;3.90;;;;;;;13.37;65.75;100360.96;107189;1257;72873;-39
2023/09/05 04:17:48;;;;;;;7.60;4.20;;;;;;;13.35;65.89;100354.86;107234;1257;67897;-39
2023/09/05 04:20:15;;;;;;;4.90;4.10;;;;;;;13.36;65.83;100357.30;107260;1257;72701;-39
2023/09/05 04:22:43;;;;;;;6.60;4.50;;;;;;;13.38;65.92;100362.94;107251;1257;60309;-39
2023/09/05 04:25:11;;;;;;;5.50;4.40;;;;;;;13.38;66.04;100360.22;107262;1257;60455;-39
2023/09/05 04:27:39;;;;;;;5.60;4.00;;;;;;;13.39;66.15;100360.33;107228;1257;73884;-39
2023/09/05 04:30:08;;;;;;;7.70;4.40;;;;;;;13.38;66.02;100362.80;107230;1262;66647;-39
2023/09/05 04:32:36;;;;;;;9.70;4.30;;;;;;;13.43;66.03;100359.08;107290;1257;72658;-39
2023/09/05 04:35:05;;;;;;;5.40;4.10;;;;;;;13.53;65.98;100358.45;107217;1257;60373;-40
2023/09/05 04:37:32;;;;;;;7.60;4.20;;;;;;;13.58;65.93;100362.99;107270;1257;60558;-39
2023/09/05 04:40:03;;;;;;;7.90;4.50;;;;;;;13.62;65.99;100361.40;107258;1257;72902;-39
2023/09/05 04:42:30;;;;;;;7.00;5.00;;;;;;;13.67;66.12;100366.41;107219;1257;66739;-39
2023/09/05 04:44:58;;;;;;;8.30;5.10;;;;;;;13.73;65.98;100364.59;107220;1257;71433;-39
2023/09/05 04:47:27;;;;;;;7.20;5.00;;;;;;;13.79;66.07;100365.89;107269;1258;60341;-40
2023/09/05 04:49:56;;;;;;;7.10;4.80;;;;;;;13.82;65.99;100357.65;107298;1258;60379;-40
2023/09/05 04:52:26;;;;;;;6.70;4.90;;;;;;;13.88;66.03;100357.62;107285;1257;73855;-39
2023/09/05 04:54:58;;;;;;;6.70;4.50;;;;;;;13.98;65.91;100359.67;107292;1257;66764;-39
2023/09/05 04:57:26;;;;;;;5.90;4.70;;;;;;;14.09;65.88;100359.77;107260;1257;72705;-40
2023/09/05 04:59:57;;;;;;;6.60;4.90;;;;;;;14.17;65.97;100362.64;107290;1256;60409;-39
2023/09/05 05:02:26;;;;;;;7.50;5.20;;;;;;;14.23;65.94;100360.98;107285;1257;60482;-40
2023/09/05 05:04:54;;;;;;;7.20;5.40;;;;;;;14.30;66.04;100362.07;107218;1257;73030;-39
2023/09/05 05:07:22;;;;;;;9.40;4.80;;;;;;;14.38;66.03;100362.48;107245;1257;66286;-39
2023/09/05 05:09:50;;;;;;;8.10;5.10;;;;;;;14.44;66.08;100361.95;107234;1263;70573;-40
2023/09/05 05:12:17;;;;;;;7.00;4.70;;;;;;;14.49;66.26;100355.27;107190;1257;60646;-40
2023/09/05 05:14:45;;;;;;;5.90;4.60;;;;;;;14.56;66.49;100357.59;107223;1256;60400;-39
2023/09/05 05:17:13;;;;;;;7.00;4.40;;;;;;;14.68;66.39;100355.46;107223;1257;72560;-39
2023/09/05 05:19:41;;;;;;;8.10;5.00;;;;;;;14.81;66.34;100353.61;107260;1260;67881;-39
2023/09/05 05:22:10;;;;;;;7.60;4.70;;;;;;;14.92;66.36;100355.67;107208;1257;72705;-40
2023/09/05 05:24:38;;;;;;;9.60;4.50;;;;;;;15.02;66.49;100356.39;107239;1257;60544;-40
2023/09/05 05:27:06;;;;;;;8.00;4.60;;;;;;;15.12;66.37;100357.64;107204;1257;60447;-40
2023/09/05 05:29:34;;;;;;;6.00;3.80;;;;;;;15.21;66.10;100356.86;107162;1263;74500;-39
2023/09/05 05:32:01;;;;;;;5.90;4.00;;;;;;;15.30;65.74;100358.48;107249;1257;67303;-39
2023/09/05 05:34:30;;;;;;;5.60;3.90;;;;;;;15.38;65.54;100359.31;107227;1261;72120;-39
2023/09/05 05:36:57;;;;;;;6.10;4.00;;;;;;;15.50;65.28;100366.52;107243;1257;60514;-40
2023/09/05 05:39:26;;;;;;;8.40;4.20;;;;;;;15.64;65.06;100366.91;107215;1257;60093;-40
2023/09/05 05:41:53;;;;;;;4.80;3.60;;;;;;;15.73;65.25;100369.70;107211;1262;73890;-40
2023/09/05 05:44:21;;;;;;;4.80;3.70;;;;;;;15.82;65.11;100371.31;107204;1258;67649;-40
2023/09/05 05:46:49;;;;;;;5.70;3.90;;;;;;;15.92;64.81;100374.10;107205;1257;72686;-40
2023/09/05 05:49:16;;;;;;;6.90;3.60;;;;;;;16.00;64.73;100375.38;107186;1257;60478;-39
2023/09/05 05:51:44;;;;;;;7.80;4.60;;;;;;;16.11;64.92;100375.75;107244;1257;59570;-40
2023/09/05 05:54:11;;;;;;;6.10;4.10;;;;;;;16.21;64.63;100371.66;107229;1257;73866;-40
2023/09/05 05:56:39;;;;;;;4.80;3.30;;;;;;;16.35;64.16;100371.83;107265;1256;66765;-40
2023/09/05 05:59:07;;;;;;;4.60;3.70;;;;;;;16.50;63.53;100371.29;107173;1257;72654;-40
2023/09/05 06:01:35;;;;;;;7.50;3.80;;;;;;;16.64;63.12;100371.15;107227;1258;60040;-40
2023/09/05 06:04:03;;;;;;;6.80;4.20;;;;;;;16.76;63.11;100368.70;107230;1257;60352;-39
2023/09/05 06:06:31;;;;;;;5.50;3.70;;;;;;;16.87;62.79;100366.08;107253;1256;72696;-39
2023/09/05 06:08:59;;;;;;;5.20;3.70;;;;;;;16.99;62.51;100367.20;107225;1257;67730;-40
2023/09/05 06:11:27;;;;;;;6.40;3.70;;;;;;;17.10;61.95;100373.48;107199;1257;72736;-40
2023/09/05 06:13:55;;;;;;;6.60;3.70;;;;;;;17.21;61.77;100371.85;107204;1258;60977;-40
2023/09/05 06:16:23;;;;;;;4.00;3.20;;;;;;;17.31;60.84;100371.07;107178;1257;60435;-40
2023/09/05 06:18:50;;;;;;;4.80;3.00;;;;;;;17.40;60.29;100368.48;107237;1257;73848;-40
2023/09/05 06:21:18;;;;;;;4.60;2.80;;;;;;;17.50;59.70;100362.83;107198;1257;67569;-40
2023/09/05 06:23:46;;;;;;;4.10;3.20;;;;;;;17.59;59.37;100362.52;107210;1257;72789;-40
2023/09/05 06:26:14;;;;;;;3.70;3.00;;;;;;;17.68;59.39;100361.71;107191;1257;60484;-40
2023/09/05 06:28:41;;;;;;;5.30;3.00;;;;;;;17.77;58.54;100363.73;107213;1257;60313;-40
2023/09/05 06:31:09;;;;;;;5.70;3.30;;;;;;;17.87;58.56;100362.22;107185;1257;74193;-40
2023/09/05 06:33:36;;;;;;;3.90;2.80;;;;;;;17.97;58.34;100360.77;107208;1257;67589;-40
2023/09/05 06:36:05;;;;;;;3.80;2.70;;;;;;;18.09;58.24;100362.09;107201;1257;71364;-38
2023/09/05 06:38:33;;;;;;;4.10;3.30;;;;;;;18.22;57.76;100363.55;107164;1257;60431;-39
2023/09/05 06:41:06;;;;;;;5.00;3.10;;;;;;;18.35;57.31;100364.63;107174;1262;60377;-39
2023/09/05 06:43:33;;;;;;;5.00;3.00;;;;;;;18.48;56.51;100360.42;107208;1257;71823;-39
2023/09/05 06:46:05;;;;;;;4.20;3.00;;;;;;;18.60;55.84;100356.33;107200;1257;66732;-39
2023/09/05 06:48:39;;;;;;;3.40;2.70;;;;;;;18.74;55.11;100359.57;107201;1257;72697;-39
2023/09/05 06:51:06;;;;;;;3.40;2.70;;;;;;;18.89;54.11;100349.14;107140;1257;61026;-39
2023/09/05 06:53:34;;;;;;;5.60;2.80;;;;;;;19.03;53.61;100348.77;107201;1258;60548;-39
2023/09/05 06:56:02;;;;;;;3.90;2.90;;;;;;;19.18;53.36;100346.64;107192;1260;73902;-39
2023/09/05 06:58:29;;;;;;;5.40;3.00;;;;;;;19.32;52.81;100345.60;107213;1257;66640;-39
2023/09/05 07:00:57;;;;;;;3.20;2.80;;;;;;;19.47;51.34;100346.72;107211;1261;73038;-39
2023/09/05 07:03:25;;;;;;;3.30;2.80;;;;;;;19.57;50.69;100343.33;107161;1257;59624;-40
2023/09/05 07:05:53;;;;;;;2.90;2.50;;;;;;;19.68;50.09;100343.61;107201;1257;60517;-40
2023/09/05 07:08:24;;;;;;;4.20;2.90;;;;;;;19.79;49.74;100343.98;107194;1256;73990;-39
2023/09/05 07:10:52;;;;;;;4.20;2.90;;;;;;;19.90;49.46;100344.50;107190;1257;67901;-39
2023/09/05 07:13:19;;;;;;;3.60;2.60;;;;;;;20.00;49.47;100340.45;107210;1257;72673;-39
2023/09/05 07:15:47;;;;;;;4.80;3.10;;;;;;;20.14;48.85;100343.95;107196;1257;60316;-38
2023/09/05 07:18:15;;;;;;;3.50;2.90;;;;;;;20.26;48.07;100341.45;107233;1257;60340;-38
2023/09/05 07:20:43;;;;;;;3.00;2.40;;;;;;;20.38;47.26;100341.27;107245;1257;73795;-39
2023/09/05 07:23:11;;;;;;;3.90;2.80;;;;;;;20.50;47.36;100336.47;107234;1262;67581;-39
2023/09/05 07:25:39;;;;;;;5.20;3.20;;;;;;;20.63;47.62;100337.11;107189;1257;71406;-38
2023/09/05 07:28:07;;;;;;;3.00;2.40;;;;;;;20.75;47.37;100336.38;107239;1257;60584;-40
2023/09/05 07:30:35;;;;;;;3.10;2.50;;;;;;;20.87;47.02;100339.60;107256;1257;59212;-39
2023/09/05 07:33:02;;;;;;;4.30;2.60;;;;;;;20.94;46.10;100337.90;107219;1256;72544;-40
2023/09/05 07:35:30;;;;;;;3.30;2.80;;;;;;;21.08;45.29;100337.77;107206;1257;67642;-40
2023/09/05 07:37:58;;;;;;;3.40;2.70;;;;;;;21.18;44.93;100338.60;107192;1262;72478;-41
2023/09/05 07:40:26;;;;;;;3.30;2.80;;;;;;;21.30;44.90;100342.11;107211;1257;60160;-41
2023/09/05 07:42:55;;;;;;;4.10;2.70;;;;;;;21.41;44.28;100343.83;107212;1257;60466;-41
2023/09/05 07:45:24;;;;;;;3.80;2.80;;;;;;;21.50;43.42;100343.35;107208;1257;73939;-41
2023/09/05 07:47:53;;;;;;;3.30;2.90;;;;;;;21.60;42.55;100337.64;107235;1257;67595;-41
2023/09/05 07:50:20;;;;;;;3.70;2.80;;;;;;;21.71;41.57;100331.85;107208;1257;72685;-41
2023/09/05 07:52:48;;;;;;;3.30;2.70;;;;;;;21.80;41.76;100329.23;107183;1258;60531;-41
2023/09/05 07:55:16;;;;;;;3.20;2.70;;;;;;;21.92;42.24;100325.16;107195;1257;59254;-41
2023/09/05 07:57:44;;;;;;;3.00;2.60;;;;;;;22.07;41.90;100325.06;107195;1257;73837;-41
2023/09/05 08:00:15;;;;;;;5.40;3.20;;;;;;;22.20;41.50;100327.66;107217;1257;66451;-41
2023/09/05 08:02:43;;;;;;;4.50;3.00;;;;;;;22.31;40.74;100329.33;107179;1257;72685;-41
2023/09/05 08:05:12;;;;;;;3.70;3.00;;;;;;;22.41;40.34;100328.23;107234;1257;60325;-41
2023/09/05 08:07:40;;;;;;;5.30;2.80;;;;;;;22.50;39.83;100328.27;107275;1257;60418;-41
2023/09/05 08:10:08;;;;;;;5.20;2.90;;;;;;;22.58;40.20;100326.51;107230;1257;73886;-41
2023/09/05 08:12:36;;;;;;;3.20;2.60;;;;;;;22.65;39.74;100326.55;107199;1257;68089;-41
2023/09/05 08:15:05;;;;;;;6.20;2.50;;;;;;;22.69;39.92;100327.54;107256;1257;70277;-41
2023/09/05 08:17:33;;;;;;;3.40;2.90;;;;;;;22.74;39.15;100328.49;107207;1261;60447;-41
2023/09/05 08:20:03;;;;;;;4.20;2.90;;;;;;;22.81;37.96;100323.18;107215;1257;60335;-41
2023/09/05 08:22:31;;;;;;;3.00;2.50;;;;;;;22.85;37.81;100321.38;107219;1257;73832;-39
2023/09/05 08:24:59;;;;;;;4.60;2.70;;;;;;;22.94;38.17;100325.41;107245;1257;68037;-40
2023/09/05 08:27:29;;;;;;;3.00;2.70;;;;;;;23.05;37.97;100323.04;107273;1258;71441;-40
2023/09/05 08:29:57;;;;;;;4.40;2.60;;;;;;;23.15;37.76;100324.36;107192;1257;60396;-40
2023/09/05 08:32:25;;;;;;;4.20;2.60;;;;;;;23.28;37.39;100320.89;107239;1261;59572;-40
2023/09/05 08:34:53;;;;;;;3.60;2.90;;;;;;;23.41;36.83;100319.41;107209;1257;73879;-40
2023/09/05 08:37:21;;;;;;;3.60;2.60;;;;;;;23.53;37.01;100320.15;107214;1257;67904;-40
2023/09/05 08:42:36;;;;;;;3.70;2.90;;;;;;;23.78;36.00;100317.21;104100;1293;601142;-39
2023/09/05 08:45:04;;;;;;;4.10;2.80;;;;;;;23.88;35.89;100317.49;106563;1266;59259;-39
2023/09/05 08:47:31;;;;;;;3.20;2.40;;;;;;;23.99;35.76;100314.73;106679;1266;59230;-39
2023/09/05 08:49:59;;;;;;;4.00;2.80;;;;;;;24.05;34.66;100312.64;106625;1266;71525;-40
2023/09/05 08:52:29;;;;;;;3.60;2.80;;;;;;;24.04;34.79;100311.95;106637;1266;67600;-40
2023/09/05 08:54:58;;;;;;;4.30;2.50;;;;;;;24.00;34.35;100311.46;106704;1267;71442;-40
2023/09/05 08:57:25;;;;;;;4.20;2.70;;;;;;;23.99;34.28;100320.75;106572;1264;210483;-40
2023/09/05 08:59:56;;;;;;;3.10;2.30;;;;;;;24.04;33.75;100321.77;106715;1270;60130;-40
2023/09/05 09:02:24;;;;;;;4.80;2.70;;;;;;;24.11;33.47;100322.17;106715;1263;72475;-39
2023/09/05 09:04:52;;;;;;;3.00;2.70;;;;;;;24.17;33.36;100315.48;106679;1264;67917;-39
2023/09/05 09:07:25;;;;;;;7.20;2.20;;;;;;;24.19;33.06;100322.42;106896;1264;72671;-39
2023/09/05 09:09:53;;;;;;;2.90;2.50;;;;;;;24.21;32.62;100318.97;106800;1264;60111;-39
2023/09/05 09:12:29;;;;;;;3.90;2.60;;;;;;;24.26;32.71;100315.54;106788;1264;59497;-39
2023/09/05 09:15:13;;;;;;;2.70;2.40;;;;;;;24.36;32.98;100313.73;106826;1264;73146;-40
2023/09/05 09:17:49;;;;;;;3.50;2.50;;;;;;;24.50;32.61;100318.70;106734;1264;68041;-40
2023/09/05 09:20:18;;;;;;;3.00;2.60;;;;;;;24.68;32.61;100318.39;106786;1264;72652;-39
2023/09/05 09:22:50;;;;;;;3.50;2.60;;;;;;;24.81;32.18;100313.17;106700;1266;60390;-39
2023/09/05 09:25:20;;;;;;;4.50;2.40;;;;;;;24.98;31.66;100315.08;106812;1264;60040;-39
2023/09/05 09:27:53;;;;;;;3.10;2.40;;;;;;;25.17;31.65;100314.02;106800;1264;73060;-40
2023/09/05 09:30:23;;;;;;;3.80;2.40;;;;;;;25.39;31.63;100318.46;106712;1263;67639;-39
2023/09/05 09:32:51;;;;;;;3.00;2.40;;;;;;;25.58;30.49;100312.17;106798;1264;72685;-39
2023/09/05 09:35:19;;;;;;;3.10;2.60;;;;;;;25.69;29.73;100301.02;106823;1263;62231;-39
2023/09/05 09:37:47;;;;;;;3.90;3.20;;;;;;;25.75;30.39;100304.58;106744;1263;60030;-39
2023/09/05 09:40:19;;;;;;;2.90;2.30;;;;;;;25.84;30.56;100305.17;106853;1264;73055;-40
2023/09/05 09:42:49;;;;;;;3.00;2.40;;;;;;;25.90;30.15;100291.92;106834;1266;66626;-39
2023/09/05 09:45:18;;;;;;;3.30;2.60;;;;;;;25.95;30.02;100290.17;106806;1263;72692;-39
2023/09/05 09:47:47;;;;;;;9.30;3.00;;;;;;;26.04;30.77;100287.55;106848;1264;60538;-39
2023/09/05 09:50:19;;;;;;;4.70;2.60;;;;;;;26.10;29.30;100294.40;106791;1264;60044;-39
2023/09/05 09:52:50;;;;;;;3.10;2.80;;;;;;;26.11;29.18;100287.48;106827;1264;73056;-40
2023/09/05 09:55:18;;;;;;;3.90;2.40;;;;;;;26.11;28.90;100286.20;106770;1264;66630;-40
2023/09/05 09:57:47;;;;;;;3.30;2.50;;;;;;;26.15;28.76;100284.98;106771;1264;72674;-40
2023/09/05 10:00:18;;;;;;;3.20;2.30;;;;;;;26.22;28.82;100290.20;106808;1264;59608;-40
2023/09/05 10:02:46;;;;;;;3.10;2.80;;;;;;;26.32;28.92;100285.27;106807;1264;60102;-40
2023/09/05 10:05:16;;;;;;;3.60;2.40;;;;;;;26.46;27.78;100280.87;106748;1264;73168;-40
2023/09/05 10:07:44;;;;;;;3.20;2.40;;;;;;;26.56;27.86;100283.52;106766;1266;66311;-40
2023/09/05 10:10:17;;;;;;;5.70;2.50;;;;;;;26.66;27.94;100280.30;106641;1266;72670;-40
2023/09/05 10:12:46;;;;;;;2.70;2.30;;;;;;;26.80;27.94;100275.31;106821;1265;60066;-40
2023/09/05 10:15:14;;;;;;;3.30;2.60;;;;;;;26.92;28.05;100270.89;106703;1264;60086;-40
2023/09/05 10:17:42;;;;;;;2.70;2.40;;;;;;;27.05;27.81;100272.76;106705;1266;73097;-40
2023/09/05 10:20:14;;;;;;;4.10;2.80;;;;;;;27.13;28.37;100271.27;106785;1266;67637;-40
2023/09/05 10:22:44;;;;;;;4.10;2.70;;;;;;;27.30;27.97;100268.23;106823;1264;72760;-40
2023/09/05 10:25:13;;;;;;;3.80;2.70;;;;;;;27.52;27.45;100259.50;106749;1266;60085;-40
2023/09/05 10:27:42;;;;;;;4.40;2.90;;;;;;;27.70;26.57;100253.04;106735;1267;60107;-40
2023/09/05 10:30:10;;;;;;;6.80;2.50;;;;;;;27.85;26.61;100255.35;106775;1264;73062;-40
2023/09/05 10:32:44;;;;;;;2.90;2.50;;;;;;;27.98;26.35;100256.20;106763;1264;67771;-40
2023/09/05 10:35:16;;;;;;;3.40;2.40;;;;;;;28.06;25.78;100256.77;106839;1266;72734;-40
2023/09/05 10:37:51;;;;;;;4.20;2.90;;;;;;;28.10;24.99;100253.36;106789;1266;60188;-40
2023/09/05 10:40:22;;;;;;;2.90;2.40;;;;;;;28.09;24.74;100253.05;106758;1266;60008;-40
2023/09/05 10:42:51;;;;;;;4.50;2.70;;;;;;;28.20;24.63;100248.05;106692;1266;72548;-41
2023/09/05 10:45:21;;;;;;;4.40;2.70;;;;;;;28.40;24.93;100247.44;106753;1266;67691;-39
2023/09/05 10:47:50;;;;;;;4.90;2.40;;;;;;;28.64;24.80;100243.26;106671;1268;72687;-40
2023/09/05 10:50:20;;;;;;;3.00;2.50;;;;;;;28.88;24.49;100245.94;106694;1269;60225;-40
2023/09/05 10:53:10;;;;;;;3.70;2.40;;;;;;;29.13;24.18;100245.44;106717;1266;59410;-40
2023/09/05 10:55:46;;;;;;;3.30;2.80;;;;;;;29.34;23.48;100241.17;106764;1266;73031;-40
2023/09/05 10:58:47;;;;;;;3.30;2.30;;;;;;;29.47;23.48;100243.47;106710;1267;67602;-40
2023/09/05 11:01:29;;;;;;;2.70;2.40;;;;;;;29.66;23.22;100229.58;106753;1267;72677;-40
2023/09/05 11:04:03;;;;;;;2.70;2.40;;;;;;;29.88;22.65;100230.65;106993;1262;60054;-40
2023/09/05 11:06:31;;;;;;;2.90;2.60;;;;;;;30.02;22.93;100228.27;107018;1261;60132;-40
2023/09/05 11:09:04;;;;;;;2.70;2.20;;;;;;;30.22;22.88;100233.73;106857;1263;73097;-40
2023/09/05 11:11:37;;;;;;;2.60;2.20;;;;;;;30.42;22.30;100218.08;107028;1263;67153;-40
2023/09/05 11:14:04;;;;;;;4.40;2.60;;;;;;;30.53;22.07;100223.48;106906;1261;71434;-40
2023/09/05 11:16:49;;;;;;;3.40;2.40;;;;;;;30.70;22.20;100222.98;106830;1266;59667;-40
2023/09/05 11:19:29;;;;;;;3.60;2.90;;;;;;;30.86;22.04;100210.89;107014;1261;59536;-40
2023/09/05 11:22:08;;;;;;;2.70;2.30;;;;;;;30.99;21.95;100211.23;107052;1261;73076;-40
2023/09/05 11:24:38;;;;;;;2.60;2.40;;;;;;;31.22;21.10;100214.55;106859;1264;66789;-40
2023/09/05 11:27:07;;;;;;;3.00;2.60;;;;;;;31.40;21.53;100211.73;106900;1263;71516;-40
2023/09/05 11:29:34;;;;;;;3.10;2.30;;;;;;;31.62;21.47;100211.23;106823;1263;59617;-40